Time;durP1;ratioP1;P1;durP2;ratioP2;P2;SDS_P1;SDS_P2;PMS_P1;PMS_P2;Temp;Humidity;BMP_temperature;BMP_pressure;BME280_temperature;BME280_humidity;BME280_pressure;Samples;Min_cycle;Max_cycle;Signal;HPM_P1;HPM_P2
2023/03/18 00:02:22;;;;;;;;;;;;;;;11.28;69.55;100707.56;4956024;28;2395;-76
2023/03/18 00:04:47;;;;;;;;;;;;;;;11.29;70.32;100709.22;4973738;28;1401;-76
2023/03/18 00:07:12;;;;;;;;;;;;;;;11.28;70.12;100707.56;4974643;28;1199;-76
2023/03/18 00:09:37;;;;;;;;;;;;;;;11.27;69.23;100705.94;4975704;28;1353;-77
2023/03/18 00:12:03;;;;;;;;;;;;;;;11.25;69.85;100698.28;4971925;28;1347;-76
2023/03/18 00:14:29;;;;;;;;;;;;;;;11.23;70.20;100701.94;4946116;28;1314;-76
2023/03/18 00:16:54;;;;;;;;;;;;;;;11.21;70.43;100698.69;4962794;28;1019;-76
2023/03/18 00:19:20;;;;;;;;;;;;;;;11.22;70.48;100687.34;4963866;28;1136;-77
2023/03/18 00:21:45;;;;;;;;;;;;;;;11.22;70.31;100692.53;4963619;28;1903;-76
2023/03/18 00:24:11;;;;;;;;;;;;;;;11.20;70.28;100694.44;4950797;28;1430;-76
2023/03/18 00:26:36;;;;;;;;;;;;;;;11.19;70.47;100693.63;4951257;28;1261;-76
2023/03/18 00:29:01;;;;;;;;;;;;;;;11.20;70.48;100689.25;4968972;28;1074;-76
2023/03/18 00:31:27;;;;;;;;;;;;;;;11.21;70.55;100698.69;4969243;28;1223;-76
2023/03/18 00:33:53;;;;;;;;;;;;;;;11.18;70.63;100686.78;4969154;28;1053;-77
2023/03/18 00:36:24;;;;;;;;;;;;;;;11.16;70.79;100694.69;4963372;28;1196;-76
2023/03/18 00:38:50;;;;;;;;;;;;;;;11.14;70.75;100686.22;4962558;28;1376;-76
2023/03/18 00:41:15;;;;;;;;;;;;;;;11.14;70.58;100695.78;4948664;28;1950;-76
2023/03/18 00:43:51;;;;;;;;;;;;;;;11.13;70.93;100694.97;4972676;28;1135;-76
2023/03/18 00:46:17;;;;;;;;;;;;;;;11.14;70.42;100707.00;4965348;28;1219;-76
2023/03/18 00:48:43;;;;;;;;;;;;;;;11.13;70.75;100699.34;4956900;28;1284;-76
2023/03/18 00:51:12;;;;;;;;;;;;;;;11.12;70.82;100706.28;4969359;28;1296;-76
2023/03/18 00:53:39;;;;;;;;;;;;;;;11.11;71.10;100707.25;4969443;28;1465;-77
2023/03/18 00:56:04;;;;;;;;;;;;;;;11.08;70.81;100701.50;4967163;28;1663;-77
2023/03/18 00:58:30;;;;;;;;;;;;;;;11.10;71.30;100713.41;4964520;28;2074;-76
2023/03/18 01:00:55;;;;;;;;;;;;;;;11.08;71.46;100710.13;4972761;28;5124;-76
2023/03/18 01:03:24;;;;;;;;;;;;;;;11.09;71.60;100714.34;4971524;28;1280;-76
2023/03/18 01:05:50;;;;;;;;;;;;;;;11.08;71.72;100712.72;4968799;28;1542;-77
2023/03/18 01:08:16;;;;;;;;;;;;;;;11.08;71.74;100706.69;4973595;28;1271;-76
2023/03/18 01:10:41;;;;;;;;;;;;;;;11.08;72.32;100702.34;4966952;28;1323;-76
2023/03/18 01:13:06;;;;;;;;;;;;;;;11.06;72.23;100693.84;4971914;28;1460;-76
2023/03/18 01:15:32;;;;;;;;;;;;;;;11.05;71.58;100702.59;4967335;28;1071;-76
2023/03/18 01:17:58;;;;;;;;;;;;;;;11.04;72.29;100706.13;4968717;28;1121;-75
2023/03/18 01:20:24;;;;;;;;;;;;;;;11.03;72.10;100707.09;4964541;28;1425;-76
2023/03/18 01:22:50;;;;;;;;;;;;;;;11.03;72.16;100714.06;4968333;28;1948;-76
2023/03/18 01:25:15;;;;;;;;;;;;;;;10.99;72.13;100708.28;4967332;28;1549;-77
2023/03/18 01:27:41;;;;;;;;;;;;;;;10.98;73.12;100711.84;4966160;28;1076;-77
2023/03/18 01:30:08;;;;;;;;;;;;;;;10.98;72.37;100705.84;4962452;28;1717;-77
2023/03/18 01:32:33;;;;;;;;;;;;;;;10.96;72.46;100703.38;4965933;28;1072;-77
2023/03/18 01:34:58;;;;;;;;;;;;;;;10.94;73.00;100704.44;4949733;28;1047;-76
2023/03/18 01:37:24;;;;;;;;;;;;;;;10.93;72.95;100703.63;4965472;28;1341;-76
2023/03/18 01:39:49;;;;;;;;;;;;;;;10.92;73.76;100717.56;4966970;28;1924;-77
2023/03/18 01:42:17;;;;;;;;;;;;;;;10.87;73.00;100710.16;4965856;28;1926;-77
2023/03/18 01:44:42;;;;;;;;;;;;;;;10.86;73.79;100713.72;4974178;28;1244;-76
2023/03/18 01:47:09;;;;;;;;;;;;;;;10.85;73.08;100711.25;4953295;28;1520;-77
2023/03/18 01:49:54;;;;;;;;;;;;;;;10.83;73.46;100710.53;4964734;28;1178;-77
2023/03/18 01:52:21;;;;;;;;;;;;;;;10.80;74.06;100708.22;4950810;28;1537;-77
2023/03/18 01:55:07;;;;;;;;;;;;;;;10.79;73.58;100711.78;4974363;28;2163;-76
2023/03/18 01:57:32;;;;;;;;;;;;;;;10.76;73.82;100706.81;4970443;28;1303;-76
2023/03/18 01:59:59;;;;;;;;;;;;;;;10.76;74.03;100705.06;4966182;28;5103;-77
2023/03/18 02:02:25;;;;;;;;;;;;;;;10.74;74.46;100704.38;4971249;28;1979;-76
2023/03/18 02:04:52;;;;;;;;;;;;;;;10.74;73.95;100698.38;4970425;28;1284;-76
2023/03/18 02:07:29;;;;;;;;;;;;;;;10.73;74.27;100702.72;4974301;28;1335;-77
2023/03/18 02:09:56;;;;;;;;;;;;;;;10.73;74.58;100705.31;4974925;28;1434;-78
2023/03/18 02:12:23;;;;;;;;;;;;;;;10.73;73.92;100707.09;4959292;28;1374;-77
2023/03/18 02:14:49;;;;;;;;;;;;;;;10.71;75.30;100708.97;4969100;28;1245;-76
2023/03/18 02:17:18;;;;;;;;;;;;;;;10.70;74.75;100707.34;4971326;28;1288;-77
2023/03/18 02:19:55;;;;;;;;;;;;;;;10.68;75.03;100707.47;4971560;28;1421;-77
2023/03/18 02:22:30;;;;;;;;;;;;;;;10.68;74.57;100704.06;4971759;28;1969;-77
2023/03/18 02:24:58;;;;;;;;;;;;;;;10.67;76.01;100705.00;4973983;28;1557;-77
2023/03/18 02:27:28;;;;;;;;;;;;;;;10.67;76.65;100707.59;4971216;28;1137;-77
2023/03/18 02:29:57;;;;;;;;;;;;;;;10.67;75.83;100707.59;4948779;28;1190;-77
2023/03/18 02:32:25;;;;;;;;;;;;;;;10.64;75.34;100714.69;4945888;28;1289;-76
2023/03/18 02:34:50;;;;;;;;;;;;;;;10.64;75.90;100714.69;4949060;28;1199;-77
2023/03/18 02:37:15;;;;;;;;;;;;;;;10.64;76.86;100714.69;4950920;28;1786;-76
2023/03/18 02:39:41;;;;;;;;;;;;;;;10.64;76.65;100706.91;4929537;29;1248;-76
2023/03/18 02:42:06;;;;;;;;;;;;;;;10.64;76.48;100717.28;4950485;28;1976;-77
2023/03/18 02:44:33;;;;;;;;;;;;;;;10.63;76.92;100723.41;4934620;29;1270;-77
2023/03/18 02:47:00;;;;;;;;;;;;;;;10.62;76.77;100721.78;4943854;28;1411;-77
2023/03/18 02:49:26;;;;;;;;;;;;;;;10.61;77.05;100725.34;4950308;28;2294;-77
2023/03/18 02:51:52;;;;;;;;;;;;;;;10.61;76.74;100725.34;4932565;28;1208;-77
2023/03/18 02:54:19;;;;;;;;;;;;;;;10.60;77.67;100731.44;4949784;28;1327;-76
2023/03/18 02:56:44;;;;;;;;;;;;;;;10.60;77.78;100741.81;4954882;28;1376;-76
2023/03/18 02:59:10;;;;;;;;;;;;;;;10.58;77.74;100733.34;4952051;28;1229;-77
2023/03/18 03:01:36;;;;;;;;;;;;;;;10.58;77.60;100740.31;4951294;28;4928;-76
2023/03/18 03:04:03;;;;;;;;;;;;;;;10.57;78.42;100739.50;4938983;28;1343;-77
2023/03/18 03:06:28;;;;;;;;;;;;;;;10.53;79.00;100738.09;4956343;28;1405;-76
2023/03/18 03:08:54;;;;;;;;;;;;;;;10.52;78.67;100746.84;4934245;28;1379;-77
2023/03/18 03:11:20;;;;;;;;;;;;;;;10.51;79.40;100740.00;4953210;28;1244;-76
2023/03/18 03:13:45;;;;;;;;;;;;;;;10.49;79.55;100752.25;4951938;28;1553;-76
2023/03/18 03:16:12;;;;;;;;;;;;;;;10.50;79.46;100742.72;4930239;28;1426;-76
2023/03/18 03:18:38;;;;;;;;;;;;;;;10.49;79.20;100747.06;4950690;28;1343;-77
2023/03/18 03:21:04;;;;;;;;;;;;;;;10.48;80.04;100745.44;4951765;28;1958;-77
2023/03/18 03:23:29;;;;;;;;;;;;;;;10.49;81.15;100747.06;4952144;28;1543;-77
2023/03/18 03:25:55;;;;;;;;;;;;;;;10.49;82.03;100752.25;4955791;28;1358;-77
2023/03/18 03:28:20;;;;;;;;;;;;;;;10.48;81.82;100760.16;4935734;28;1155;-77
2023/03/18 03:30:45;;;;;;;;;;;;;;;10.44;80.58;100754.44;4955552;28;1334;-77
2023/03/18 03:33:11;;;;;;;;;;;;;;;10.43;82.66;100760.53;4956897;28;1432;-76
2023/03/18 03:35:37;;;;;;;;;;;;;;;10.44;82.73;100763.97;4956403;28;1417;-76
2023/03/18 03:38:02;;;;;;;;;;;;;;;10.43;83.18;100768.31;4935824;28;1447;-77
2023/03/18 03:40:28;;;;;;;;;;;;;;;10.43;82.87;100770.91;4946798;28;2475;-76
2023/03/18 03:42:53;;;;;;;;;;;;;;;10.42;83.89;100776.22;4953218;28;1906;-77
2023/03/18 03:45:18;;;;;;;;;;;;;;;10.38;81.69;100778.28;4953402;28;2224;-77
2023/03/18 03:47:47;;;;;;;;;;;;;;;10.35;84.22;100771.53;4954165;28;1279;-77
2023/03/18 03:50:13;;;;;;;;;;;;;;;10.34;84.63;100779.47;4955370;28;1601;-77
2023/03/18 03:52:39;;;;;;;;;;;;;;;10.33;84.87;100788.19;4950947;28;1372;-77
2023/03/18 03:55:06;;;;;;;;;;;;;;;10.30;85.32;100773.69;4953769;28;1624;-77
2023/03/18 03:57:31;;;;;;;;;;;;;;;10.30;85.56;100775.47;4930124;28;1357;-77
2023/03/18 03:59:56;;;;;;;;;;;;;;;10.28;86.61;100777.38;4951647;28;5068;-77
2023/03/18 04:02:23;;;;;;;;;;;;;;;10.28;87.60;100774.78;4960529;28;1902;-77
2023/03/18 04:04:49;;;;;;;;;;;;;;;10.25;85.86;100785.38;4951947;28;1444;-76
2023/03/18 04:07:14;;;;;;;;;;;;;;;10.24;87.08;100783.72;4937518;28;1411;-77
2023/03/18 04:09:40;;;;;;;;;;;;;;;10.21;85.21;100771.00;4949623;28;1403;-77
2023/03/18 04:12:06;;;;;;;;;;;;;;;10.21;86.10;100776.19;4940106;28;1521;-77
2023/03/18 04:14:31;;;;;;;;;;;;;;;10.21;87.65;100773.59;4951986;28;1321;-77
2023/03/18 04:16:58;;;;;;;;;;;;;;;10.20;86.93;100777.13;4955582;28;1590;-77
2023/03/18 04:19:24;;;;;;;;;;;;;;;10.18;85.67;100777.25;4954906;28;1492;-77
2023/03/18 04:21:50;;;;;;;;;;;;;;;10.18;90.91;100777.25;4955413;28;2046;-77
2023/03/18 04:24:16;;;;;;;;;;;;;;;10.19;89.55;100783.25;4930819;28;1556;-78
2023/03/18 04:26:44;;;;;;;;;;;;;;;10.18;89.41;100784.19;4947857;28;1158;-77
2023/03/18 04:29:10;;;;;;;;;;;;;;;10.19;90.04;100788.44;4949808;28;1374;-77
2023/03/18 04:31:35;;;;;;;;;;;;;;;10.16;88.79;100780.91;4951235;28;1139;-77
2023/03/18 04:34:00;;;;;;;;;;;;;;;10.09;88.80;100773.63;4950313;28;1552;-77
2023/03/18 04:36:27;;;;;;;;;;;;;;;10.16;89.93;100786.09;4949869;28;1154;-78
2023/03/18 04:38:52;;;;;;;;;;;;;;;10.15;90.30;100781.84;4952174;28;1135;-77
2023/03/18 04:41:17;;;;;;;;;;;;;;;10.13;89.09;100786.34;4947226;28;1902;-77
2023/03/18 04:43:43;;;;;;;;;;;;;;;10.14;90.53;100790.56;4948900;28;2513;-77
2023/03/18 04:46:09;;;;;;;;;;;;;;;10.13;91.37;100775.97;4949665;28;1096;-77
2023/03/18 04:48:35;;;;;;;;;;;;;;;10.14;90.66;100787.97;4949299;28;1671;-77
2023/03/18 04:51:00;;;;;;;;;;;;;;;10.12;90.22;100790.69;4948825;28;1076;-78
2023/03/18 04:53:26;;;;;;;;;;;;;;;10.11;89.92;100784.69;4950303;28;1134;-77
2023/03/18 04:55:51;;;;;;;;;;;;;;;10.10;89.55;100782.22;4941997;28;1411;-77
2023/03/18 04:58:17;;;;;;;;;;;;;;;10.08;90.15;100779.75;4949296;28;1314;-77
2023/03/18 05:00:42;;;;;;;;;;;;;;;10.08;91.02;100781.50;4935529;28;4901;-77
2023/03/18 05:03:08;;;;;;;;;;;;;;;10.07;90.55;100783.28;4928862;28;1970;-77
2023/03/18 05:05:34;;;;;;;;;;;;;;;10.07;89.65;100788.47;4958881;28;1299;-77
2023/03/18 05:07:59;;;;;;;;;;;;;;;10.06;89.85;100792.00;4939599;28;1477;-77
2023/03/18 05:10:24;;;;;;;;;;;;;;;10.06;90.03;100791.19;4931780;28;1203;-77
2023/03/18 05:12:49;;;;;;;;;;;;;;;10.08;90.21;100803.06;4951734;28;1609;-78
2023/03/18 05:15:14;;;;;;;;;;;;;;;10.08;89.84;100808.25;4951229;28;1262;-77
2023/03/18 05:17:40;;;;;;;;;;;;;;;10.06;89.98;100807.56;4934886;28;1417;-77
2023/03/18 05:20:05;;;;;;;;;;;;;;;10.04;92.02;100801.69;4936604;28;1689;-77
2023/03/18 05:22:31;;;;;;;;;;;;;;;10.04;91.34;100804.28;4950687;28;1923;-77
2023/03/18 05:24:56;;;;;;;;;;;;;;;10.03;91.39;100812.97;4955203;28;1451;-77
2023/03/18 05:27:22;;;;;;;;;;;;;;;10.03;92.33;100812.97;4950934;28;1432;-77
2023/03/18 05:29:47;;;;;;;;;;;;;;;10.02;91.68;100820.88;4945338;28;1554;-77
2023/03/18 05:32:13;;;;;;;;;;;;;;;10.02;90.16;100821.69;4935835;29;1634;-77
2023/03/18 05:34:39;;;;;;;;;;;;;;;10.01;90.84;100814.88;4953914;28;1249;-77
2023/03/18 05:37:05;;;;;;;;;;;;;;;10.01;91.19;100812.28;4940988;28;1605;-77
2023/03/18 05:39:32;;;;;;;;;;;;;;;10.00;91.53;100807.22;4951268;28;2025;-77
2023/03/18 05:41:57;;;;;;;;;;;;;;;10.01;91.76;100816.66;4961463;28;1891;-77
2023/03/18 05:44:22;;;;;;;;;;;;;;;10.00;92.39;100817.59;4953413;28;1332;-77
2023/03/18 05:46:49;;;;;;;;;;;;;;;9.98;91.73;100825.50;4954548;28;1354;-77
2023/03/18 05:49:15;;;;;;;;;;;;;;;9.98;92.84;100830.69;4951983;28;1229;-78
2023/03/18 05:51:40;;;;;;;;;;;;;;;9.97;94.27;100834.19;4953317;28;1433;-77
2023/03/18 05:54:05;;;;;;;;;;;;;;;9.97;93.25;100829.00;4956679;28;1226;-77
2023/03/18 05:56:31;;;;;;;;;;;;;;;9.98;94.09;100830.69;4941732;28;1186;-77
2023/03/18 05:58:57;;;;;;;;;;;;;;;9.98;92.18;100822.91;4941149;28;1428;-77
2023/03/18 06:01:23;;;;;;;;;;;;;;;10.00;91.38;100827.97;4937458;28;4921;-77
2023/03/18 06:03:49;;;;;;;;;;;;;;;9.98;92.96;100825.50;4937255;29;1323;-77
2023/03/18 06:06:14;;;;;;;;;;;;;;;9.99;92.34;100824.53;4949978;28;1441;-77
2023/03/18 06:08:40;;;;;;;;;;;;;;;10.01;93.11;100820.06;4963274;28;1610;-77
2023/03/18 06:11:05;;;;;;;;;;;;;;;10.01;91.71;100840.78;4945067;28;1451;-77
2023/03/18 06:13:30;;;;;;;;;;;;;;;10.02;92.25;100842.44;4958570;28;1308;-77
2023/03/18 06:15:56;;;;;;;;;;;;;;;10.02;92.93;100837.25;4961564;28;1449;-78
2023/03/18 06:18:22;;;;;;;;;;;;;;;10.02;91.49;100837.25;4943135;28;1438;-78
2023/03/18 06:20:47;;;;;;;;;;;;;;;10.02;92.04;100846.78;4955131;28;1544;-78
2023/03/18 06:23:13;;;;;;;;;;;;;;;10.01;93.17;100845.97;4954337;28;1890;-77
2023/03/18 06:25:40;;;;;;;;;;;;;;;10.03;92.85;100849.25;4937202;29;1294;-77
2023/03/18 06:28:05;;;;;;;;;;;;;;;10.03;92.37;100849.25;4945048;28;993;-77
2023/03/18 06:30:31;;;;;;;;;;;;;;;10.04;92.90;100852.69;4945029;28;1099;-77
2023/03/18 06:32:56;;;;;;;;;;;;;;;10.03;92.89;100864.78;4950025;28;1378;-77
2023/03/18 06:35:22;;;;;;;;;;;;;;;10.05;93.61;100862.94;4946777;28;2159;-77
2023/03/18 06:37:47;;;;;;;;;;;;;;;10.03;94.07;100859.63;4954337;28;1033;-77
2023/03/18 06:40:12;;;;;;;;;;;;;;;10.02;94.59;100863.16;4946068;28;1328;-77
2023/03/18 06:42:38;;;;;;;;;;;;;;;10.03;94.43;100857.03;4944748;28;1926;-77
2023/03/18 06:45:03;;;;;;;;;;;;;;;10.04;93.60;100861.28;4927299;28;1202;-77
2023/03/18 06:47:28;;;;;;;;;;;;;;;10.06;93.30;100855.97;4942001;28;1450;-77
2023/03/18 06:49:54;;;;;;;;;;;;;;;10.06;93.36;100859.38;4948379;28;1263;-77
2023/03/18 06:52:20;;;;;;;;;;;;;;;10.06;93.89;100851.63;4940178;28;1119;-77
2023/03/18 06:54:45;;;;;;;;;;;;;;;10.09;93.75;100856.56;4952787;28;1159;-77
2023/03/18 06:57:10;;;;;;;;;;;;;;;10.11;93.93;100856.44;4952295;28;1694;-77
2023/03/18 06:59:36;;;;;;;;;;;;;;;10.14;94.77;100863.13;4948552;28;1512;-77
2023/03/18 07:02:02;;;;;;;;;;;;;;;10.15;94.20;100869.97;4954403;28;5037;-77
2023/03/18 07:04:27;;;;;;;;;;;;;;;10.18;94.13;100874.91;4956830;28;1219;-79
2023/03/18 07:06:52;;;;;;;;;;;;;;;10.17;94.70;100871.50;4953598;28;1437;-77
2023/03/18 07:09:17;;;;;;;;;;;;;;;10.19;95.04;100884.34;4947502;28;1402;-77
2023/03/18 07:11:44;;;;;;;;;;;;;;;10.20;95.06;100885.97;4946208;28;1166;-77
2023/03/18 07:14:09;;;;;;;;;;;;;;;10.23;93.23;100890.94;4947840;28;1203;-77
2023/03/18 07:16:35;;;;;;;;;;;;;;;10.24;93.39;100897.78;4927796;29;2488;-77
2023/03/18 07:19:01;;;;;;;;;;;;;;;10.27;94.49;100897.56;4936974;28;1449;-77
2023/03/18 07:21:28;;;;;;;;;;;;;;;10.29;93.88;100899.06;4952293;28;1976;-77
2023/03/18 07:23:54;;;;;;;;;;;;;;;10.32;93.58;100900.59;4952302;28;1290;-78
2023/03/18 07:26:19;;;;;;;;;;;;;;;10.39;93.71;100895.75;4948133;28;1191;-77
2023/03/18 07:28:44;;;;;;;;;;;;;;;10.43;93.73;100891.97;4938906;28;1330;-77
2023/03/18 07:31:09;;;;;;;;;;;;;;;10.46;93.84;100892.53;4949389;28;2112;-77
2023/03/18 07:33:35;;;;;;;;;;;;;;;10.50;94.67;100895.72;4948113;28;1405;-77
2023/03/18 07:36:00;;;;;;;;;;;;;;;10.53;92.97;100893.69;4946337;28;1295;-77
2023/03/18 07:38:25;;;;;;;;;;;;;;;10.58;93.54;100890.75;4956954;28;1260;-77
2023/03/18 07:40:51;;;;;;;;;;;;;;;10.73;93.02;100899.06;4952770;28;1496;-77
2023/03/18 07:43:16;;;;;;;;;;;;;;;10.67;92.84;100909.91;4950216;28;1947;-77
2023/03/18 07:45:42;;;;;;;;;;;;;;;10.75;93.08;100907.53;4944437;28;1442;-77
2023/03/18 07:48:07;;;;;;;;;;;;;;;10.79;93.46;100908.94;4950546;28;1469;-77
2023/03/18 07:50:32;;;;;;;;;;;;;;;10.88;93.31;100921.16;4950337;28;1156;-77
2023/03/18 07:52:58;;;;;;;;;;;;;;;10.87;93.75;100914.31;4949900;28;1496;-77
2023/03/18 07:55:24;;;;;;;;;;;;;;;11.00;93.00;100914.97;4948827;28;1294;-77
2023/03/18 07:57:49;;;;;;;;;;;;;;;11.04;93.72;100928.53;4952943;28;1551;-77
2023/03/18 08:00:14;;;;;;;;;;;;;;;11.00;93.34;100930.53;4948006;28;4966;-77
2023/03/18 08:02:40;;;;;;;;;;;;;;;11.08;92.98;100932.53;4950135;28;1906;-77
2023/03/18 08:05:06;;;;;;;;;;;;;;;11.13;93.56;100926.00;4946375;28;1208;-77
2023/03/18 08:07:32;;;;;;;;;;;;;;;11.10;92.79;100928.84;4947395;28;1423;-77
2023/03/18 08:09:57;;;;;;;;;;;;;;;11.19;93.87;100932.47;4953523;28;1412;-77
2023/03/18 08:12:22;;;;;;;;;;;;;;;11.23;93.92;100933.00;4950754;28;1237;-76
2023/03/18 08:14:48;;;;;;;;;;;;;;;11.28;93.40;100930.88;4938101;28;1469;-77
2023/03/18 08:17:13;;;;;;;;;;;;;;;11.36;93.09;100929.28;4949121;28;1493;-77
2023/03/18 08:19:39;;;;;;;;;;;;;;;11.45;92.57;100932.88;4947775;28;1468;-77
2023/03/18 08:22:04;;;;;;;;;;;;;;;11.44;92.76;100931.25;4956918;28;1899;-77
2023/03/18 08:24:29;;;;;;;;;;;;;;;11.49;92.46;100939.47;4949042;28;1232;-77
2023/03/18 08:26:54;;;;;;;;;;;;;;;11.52;92.36;100933.19;4935652;29;2132;-77
2023/03/18 08:29:20;;;;;;;;;;;;;;;11.54;92.26;100933.91;4943840;28;1086;-77
2023/03/18 08:31:45;;;;;;;;;;;;;;;11.52;92.58;100936.59;4943184;28;1398;-77
2023/03/18 08:34:10;;;;;;;;;;;;;;;11.57;91.98;100937.03;4947558;28;1235;-77
2023/03/18 08:36:35;;;;;;;;;;;;;;;11.64;91.94;100938.19;4928456;29;1127;-77
2023/03/18 08:39:01;;;;;;;;;;;;;;;11.70;92.11;100942.88;4947514;28;1119;-77
2023/03/18 08:41:27;;;;;;;;;;;;;;;11.74;90.89;100934.81;4948695;28;1894;-77
2023/03/18 08:43:54;;;;;;;;;;;;;;;11.79;91.10;100935.25;4949935;28;1009;-77
2023/03/18 08:46:19;;;;;;;;;;;;;;;11.84;91.42;100927.91;4941860;28;1433;-77
2023/03/18 08:48:44;;;;;;;;;;;;;;;11.92;91.15;100935.88;4945919;28;1167;-77
2023/03/18 08:51:09;;;;;;;;;;;;;;;12.00;90.74;100938.66;4940068;28;1112;-77
2023/03/18 08:53:35;;;;;;;;;;;;;;;12.10;90.42;100938.66;4942240;28;1179;-77
2023/03/18 08:56:01;;;;;;;;;;;;;;;12.23;88.93;100947.88;4935157;28;1259;-77
2023/03/18 08:58:27;;;;;;;;;;;;;;;12.20;89.65;100931.72;4950244;28;2013;-77
2023/03/18 09:00:53;;;;;;;;;;;;;;;12.29;89.31;100943.13;4953659;28;5036;-77
2023/03/18 09:03:20;;;;;;;;;;;;;;;12.37;88.53;100938.06;4952451;28;1930;-77
2023/03/18 09:05:47;;;;;;;;;;;;;;;12.43;88.97;100934.91;4943328;28;1199;-77
2023/03/18 09:08:13;;;;;;;;;;;;;;;12.59;88.12;100940.41;4950784;28;1188;-77
2023/03/18 09:10:38;;;;;;;;;;;;;;;12.57;87.98;100931.13;4929230;28;1338;-77
2023/03/18 09:13:04;;;;;;;;;;;;;;;12.69;88.19;100936.06;4937462;28;1220;-76
2023/03/18 09:15:30;;;;;;;;;;;;;;;12.75;87.75;100935.50;4949615;28;1199;-77
2023/03/18 09:17:55;;;;;;;;;;;;;;;12.81;86.61;100933.31;4947957;28;1417;-76
2023/03/18 09:20:20;;;;;;;;;;;;;;;12.87;87.11;100932.78;4946788;28;1488;-77
2023/03/18 09:22:46;;;;;;;;;;;;;;;12.95;87.29;100936.31;4957273;28;2044;-77
2023/03/18 09:25:12;;;;;;;;;;;;;;;13.04;86.25;100939.88;4954081;28;1176;-77
2023/03/18 09:27:37;;;;;;;;;;;;;;;13.05;85.94;100940.72;4950119;28;1299;-77
2023/03/18 09:30:03;;;;;;;;;;;;;;;13.09;85.85;100937.69;4953107;28;1347;-77
2023/03/18 09:32:29;;;;;;;;;;;;;;;13.15;85.11;100950.16;4947133;28;1196;-77
2023/03/18 09:34:54;;;;;;;;;;;;;;;13.22;84.97;100948.66;4946676;28;1615;-76
2023/03/18 09:37:20;;;;;;;;;;;;;;;13.33;84.52;100946.88;4950673;28;1436;-77
2023/03/18 09:39:49;;;;;;;;;;;;;;;13.45;84.14;100953.56;4938127;28;1407;-77
2023/03/18 09:42:20;;;;;;;;;;;;;;;13.47;83.75;100962.06;4953598;28;1895;-77
2023/03/18 09:44:49;;;;;;;;;;;;;;;13.54;83.56;100952.72;4950929;28;1114;-77
2023/03/18 09:47:24;;;;;;;;;;;;;;;13.58;82.75;100967.09;4954381;28;1424;-77
2023/03/18 09:50:01;;;;;;;;;;;;;;;13.58;82.59;100959.28;4952630;28;1190;-77
2023/03/18 09:52:50;;;;;;;;;;;;;;;13.62;82.68;100962.44;4949550;28;1210;-76
2023/03/18 09:55:21;;;;;;;;;;;;;;;13.69;82.10;100971.31;4937584;28;1312;-76
2023/03/18 09:57:47;;;;;;;;;;;;;;;13.69;81.39;100963.50;4944256;28;1170;-76
2023/03/18 10:00:33;;;;;;;;;;;;;;;13.73;81.62;100973.53;4947085;28;5031;-76
2023/03/18 10:02:59;;;;;;;;;;;;;;;13.62;80.94;100976.28;4947553;28;1918;-77
2023/03/18 10:05:28;;;;;;;;;;;;;;;13.60;81.11;100973.00;4949554;28;1152;-77
2023/03/18 10:07:56;;;;;;;;;;;;;;;13.59;81.15;100976.59;4951302;28;1287;-76
2023/03/18 10:10:24;;;;;;;;;;;;;;;13.61;80.69;100974.66;4952233;28;1301;-77
2023/03/18 10:12:52;;;;;;;;;;;;;;;13.70;80.35;100979.00;4952492;28;1627;-76
2023/03/18 10:15:30;;;;;;;;;;;;;;;13.72;80.87;100974.50;4951602;28;1187;-77
2023/03/18 10:18:01;;;;;;;;;;;;;;;13.80;80.63;100973.75;4947172;28;1154;-77
2023/03/18 10:20:42;;;;;;;;;;;;;;;13.84;80.17;100969.09;4948995;28;2096;-77
2023/03/18 10:23:23;;;;;;;;;;;;;;;13.85;79.85;100965.53;4951251;28;1898;-77
2023/03/18 10:25:48;;;;;;;;;;;;;;;13.89;79.75;100972.09;4953797;28;1050;-77
2023/03/18 10:28:19;;;;;;;;;;;;;;;13.95;79.76;100961.09;4953657;28;1306;-76
2023/03/18 10:31:03;;;;;;;;;;;;;;;13.98;78.73;100961.63;4942794;28;1395;-77
2023/03/18 10:33:40;;;;;;;;;;;;;;;13.94;78.38;100962.06;4950413;28;1059;-77
2023/03/18 10:36:12;;;;;;;;;;;;;;;14.00;78.10;100958.88;4950945;28;1142;-77
2023/03/18 10:38:42;;;;;;;;;;;;;;;14.00;78.22;100958.88;4944391;28;1090;-77
2023/03/18 10:41:27;;;;;;;;;;;;;;;14.10;77.71;100970.06;4945702;28;1907;-78
2023/03/18 10:43:53;;;;;;;;;;;;;;;14.15;77.81;100969.66;4942481;28;1194;-77
2023/03/18 10:46:20;;;;;;;;;;;;;;;14.28;78.04;100967.53;4947136;28;1398;-77
2023/03/18 10:48:57;;;;;;;;;;;;;;;14.42;77.71;100963.59;4952730;28;1108;-76
2023/03/18 10:51:30;;;;;;;;;;;;;;;14.50;77.60;100971.53;4951359;28;1114;-77
2023/03/18 10:53:58;;;;;;;;;;;;;;;14.59;77.78;100970.66;4955627;28;1270;-77
2023/03/18 10:56:23;;;;;;;;;;;;;;;14.71;76.92;100974.69;4962608;28;1158;-78
2023/03/18 10:58:49;;;;;;;;;;;;;;;14.76;76.56;100972.47;4957168;28;1147;-77
2023/03/18 11:01:16;;;;;;;;;;;;;;;14.86;76.00;100964.56;4951014;28;5059;-78
2023/03/18 11:03:53;;;;;;;;;;;;;;;14.97;76.66;100963.53;4954598;28;1190;-76
2023/03/18 11:06:37;;;;;;;;;;;;;;;15.09;75.66;100959.72;4950840;28;1223;-76
2023/03/18 11:09:07;;;;;;;;;;;;;;;15.09;75.25;100957.91;4941145;28;1451;-77
2023/03/18 11:11:33;;;;;;;;;;;;;;;15.19;74.69;100957.81;4952539;28;1223;-77
2023/03/18 11:14:00;;;;;;;;;;;;;;;15.29;74.12;100958.53;4960205;28;1456;-77
2023/03/18 11:16:36;;;;;;;;;;;;;;;15.34;74.13;100951.06;4955303;28;1918;-77
2023/03/18 11:19:07;;;;;;;;;;;;;;;15.36;74.63;100954.34;4957643;28;1454;-77
2023/03/18 11:21:33;;;;;;;;;;;;;;;15.36;73.41;100949.09;4950505;28;1871;-77
2023/03/18 11:24:23;;;;;;;;;;;;;;;15.28;73.36;100951.69;4955845;28;1516;-78
2023/03/18 11:26:52;;;;;;;;;;;;;;;15.25;72.62;100957.19;4952555;28;1167;-77
2023/03/18 11:29:24;;;;;;;;;;;;;;;15.22;72.92;100957.50;4938618;28;1317;-77
2023/03/18 11:31:50;;;;;;;;;;;;;;;15.17;72.66;100951.91;4951702;28;1544;-78
2023/03/18 11:34:18;;;;;;;;;;;;;;;15.14;72.46;100945.22;4955528;28;1294;-77
2023/03/18 11:36:51;;;;;;;;;;;;;;;15.06;71.42;100954.78;4951577;28;1236;-78
2023/03/18 11:39:18;;;;;;;;;;;;;;;15.00;72.17;100948.34;4949226;28;1258;-79
2023/03/18 11:41:43;;;;;;;;;;;;;;;15.03;71.98;100945.47;4932748;28;1895;-77
2023/03/18 11:44:16;;;;;;;;;;;;;;;15.02;72.26;100951.63;4938987;28;1289;-78
2023/03/18 11:46:44;;;;;;;;;;;;;;;15.00;72.17;100950.16;4951111;28;1402;-77
2023/03/18 11:49:18;;;;;;;;;;;;;;;15.00;72.03;100947.53;4930311;28;1497;-77
2023/03/18 11:51:47;;;;;;;;;;;;;;;15.03;71.71;100942.84;4946822;28;1434;-77
2023/03/18 11:54:15;;;;;;;;;;;;;;;15.01;71.37;100950.00;4954578;28;1425;-76
2023/03/18 11:56:43;;;;;;;;;;;;;;;15.00;71.73;100950.16;4956145;28;1258;-76
2023/03/18 11:59:15;;;;;;;;;;;;;;;15.01;71.87;100954.41;4955159;28;1276;-76
2023/03/18 12:01:46;;;;;;;;;;;;;;;15.07;71.44;100959.03;4952606;28;5141;-76
2023/03/18 12:04:24;;;;;;;;;;;;;;;15.09;71.59;100954.47;4947407;28;1378;-76
2023/03/18 12:06:55;;;;;;;;;;;;;;;15.11;70.43;100961.19;4952373;28;1287;-77
2023/03/18 12:09:26;;;;;;;;;;;;;;;15.13;70.68;100953.19;4952382;28;1459;-76
2023/03/18 12:12:11;;;;;;;;;;;;;;;15.16;70.71;100952.91;4927409;29;2024;-76
2023/03/18 12:14:42;;;;;;;;;;;;;;;15.14;69.83;100957.47;4946552;28;1353;-76
2023/03/18 12:17:18;;;;;;;;;;;;;;;15.10;69.79;100963.97;4954864;28;1251;-76
2023/03/18 12:20:09;;;;;;;;;;;;;;;15.06;69.80;100957.38;4950518;28;1372;-76
2023/03/18 12:22:34;;;;;;;;;;;;;;;15.02;69.66;100958.66;4954331;28;1890;-77
2023/03/18 12:25:00;;;;;;;;;;;;;;;14.96;69.74;100961.88;4947460;28;1193;-77
2023/03/18 12:27:25;;;;;;;;;;;;;;;14.93;69.90;100967.41;4948126;28;1050;-76
2023/03/18 12:30:01;;;;;;;;;;;;;;;14.87;70.14;100964.41;4949638;28;1429;-76
2023/03/18 12:32:45;;;;;;;;;;;;;;;14.84;70.42;100962.09;4946540;28;1079;-77
2023/03/18 12:35:35;;;;;;;;;;;;;;;14.82;71.01;100966.66;4952107;28;1092;-76
2023/03/18 12:38:08;;;;;;;;;;;;;;;14.76;70.77;100962.03;4945254;28;972;-76
2023/03/18 12:40:38;;;;;;;;;;;;;;;14.70;70.87;100967.03;4940060;28;1067;-77
2023/03/18 12:43:07;;;;;;;;;;;;;;;14.65;71.65;100975.28;4941826;28;1970;-77
2023/03/18 12:45:35;;;;;;;;;;;;;;;14.66;71.65;100976.94;4958003;28;1861;-77
2023/03/18 12:48:03;;;;;;;;;;;;;;;14.67;71.95;100962.09;4942838;28;1117;-76
2023/03/18 12:50:37;;;;;;;;;;;;;;;14.61;71.29;100963.50;4946563;28;1244;-77